createdAt,value
2024-02-13T00:01:08.966Z,10.70
2024-02-13T00:03:09.278Z,11.60
2024-02-13T00:05:09.834Z,13.80
2024-02-13T00:07:10.343Z,17.30
2024-02-13T00:09:10.660Z,14.20
2024-02-13T00:11:10.964Z,14.40
2024-02-13T00:13:11.338Z,15.60
2024-02-13T00:15:11.890Z,15.70
2024-02-13T00:17:12.342Z,15.60
2024-02-13T00:19:12.687Z,15.40
2024-02-13T00:21:13.065Z,17.70
2024-02-13T00:23:13.408Z,18.40
2024-02-13T00:25:13.732Z,18.60
2024-02-13T00:27:13.985Z,16.60
2024-02-13T00:29:14.300Z,17.60
2024-02-13T00:31:14.552Z,18.40
2024-02-13T00:33:15.083Z,15.90
2024-02-13T00:35:15.395Z,14.70
2024-02-13T00:37:15.729Z,15.50
2024-02-13T00:39:15.983Z,18.30
2024-02-13T00:41:16.345Z,16.80
2024-02-13T00:43:16.578Z,17.40
2024-02-13T00:45:16.872Z,18.00
2024-02-13T00:47:17.159Z,17.00
2024-02-13T00:49:17.488Z,14.60
2024-02-13T00:51:17.811Z,16.30
2024-02-13T00:53:18.085Z,16.70
2024-02-13T00:55:18.389Z,15.80
2024-02-13T00:57:18.783Z,19.80
2024-02-13T00:59:19.137Z,15.30
2024-02-13T01:01:19.608Z,14.70
2024-02-13T01:03:19.895Z,15.80
2024-02-13T01:05:20.252Z,15.10
2024-02-13T01:07:20.544Z,16.20
2024-02-13T01:09:20.798Z,19.30
2024-02-13T01:11:21.121Z,15.30
2024-02-13T01:13:21.451Z,16.60
2024-02-13T01:15:21.979Z,17.50
2024-02-13T01:17:22.318Z,16.20
2024-02-13T01:19:22.755Z,16.90
2024-02-13T01:21:23.092Z,16.40
2024-02-13T01:23:23.397Z,16.30
2024-02-13T01:25:23.656Z,18.50
2024-02-13T01:27:23.921Z,18.20
2024-02-13T01:29:24.297Z,15.90
2024-02-13T01:31:24.570Z,18.80
2024-02-13T01:33:24.970Z,18.70
2024-02-13T01:35:25.407Z,18.40
2024-02-13T01:37:25.771Z,19.50
2024-02-13T01:39:26.039Z,20.00
2024-02-13T01:41:26.425Z,17.90
2024-02-13T01:43:31.550Z,17.50
2024-02-13T01:45:31.819Z,19.30
2024-02-13T01:47:32.159Z,18.20
2024-02-13T01:49:32.581Z,17.50
2024-02-13T01:51:37.676Z,21.20
2024-02-13T01:53:38.069Z,20.30
2024-02-13T01:55:38.406Z,20.80
2024-02-13T01:57:38.675Z,17.90
2024-02-13T01:59:39.041Z,17.80
2024-02-13T02:01:39.344Z,18.00
2024-02-13T02:03:39.640Z,19.00
2024-02-13T02:05:40.138Z,20.40
2024-02-13T02:07:40.542Z,18.00
2024-02-13T02:09:40.847Z,21.90
2024-02-13T02:11:41.190Z,18.90
2024-02-13T02:13:41.545Z,21.00
2024-02-13T02:15:41.870Z,22.10
2024-02-13T02:17:42.306Z,22.30
2024-02-13T02:19:42.690Z,18.00
2024-02-13T02:21:42.978Z,19.00
2024-02-13T02:23:43.460Z,20.30
2024-02-13T02:25:43.778Z,22.90
2024-02-13T02:27:44.048Z,20.10
2024-02-13T02:29:44.452Z,16.60
2024-02-13T02:31:44.732Z,19.90
2024-02-13T02:33:45.247Z,20.70
2024-02-13T02:35:45.770Z,23.10
2024-02-13T02:37:46.037Z,21.50
2024-02-13T02:39:46.303Z,21.70
2024-02-13T02:41:46.784Z,18.90
2024-02-13T02:43:47.099Z,18.60
2024-02-13T02:45:47.388Z,20.70
2024-02-13T02:47:47.861Z,19.40
2024-02-13T02:49:48.268Z,21.00
2024-02-13T02:51:48.601Z,19.20
2024-02-13T02:53:48.943Z,17.40
2024-02-13T02:55:49.228Z,19.10
2024-02-13T02:57:49.541Z,20.00
2024-02-13T02:59:49.966Z,20.70
2024-02-13T03:01:50.262Z,18.20
2024-02-13T03:03:51.216Z,19.80
2024-02-13T03:05:51.983Z,17.40
2024-02-13T03:07:52.317Z,18.30
2024-02-13T03:09:53.427Z,27.40
2024-02-13T03:11:53.775Z,15.90
2024-02-13T03:13:54.042Z,17.20
2024-02-13T03:15:54.328Z,17.40
2024-02-13T03:17:54.672Z,24.80
2024-02-13T03:19:54.964Z,18.50
2024-02-13T03:21:55.265Z,15.10
2024-02-13T03:23:55.543Z,17.90
2024-02-13T03:25:55.824Z,17.30
2024-02-13T03:27:56.110Z,20.20
2024-02-13T03:29:56.525Z,18.40
2024-02-13T03:31:56.788Z,18.40
2024-02-13T03:33:57.422Z,20.80
2024-02-13T03:35:57.824Z,18.50
2024-02-13T03:37:58.108Z,18.60
2024-02-13T03:39:58.392Z,18.60
2024-02-13T03:41:59.015Z,19.00
2024-02-13T03:43:59.307Z,20.40
2024-02-13T03:45:59.564Z,19.90
2024-02-13T03:48:00.011Z,20.60
2024-02-13T03:50:00.382Z,21.20
2024-02-13T03:52:00.679Z,19.90
2024-02-13T03:54:01.022Z,19.30
2024-02-13T03:56:01.332Z,22.60
2024-02-13T03:58:01.577Z,22.00
2024-02-13T04:00:02.083Z,21.50
2024-02-13T04:02:02.412Z,23.70
2024-02-13T04:04:02.836Z,21.70
2024-02-13T04:06:03.174Z,19.40
2024-02-13T04:08:03.494Z,18.60
2024-02-13T04:10:03.858Z,16.40
2024-02-13T04:12:04.128Z,21.20
2024-02-13T04:14:04.432Z,22.30
2024-02-13T04:16:04.722Z,19.10
2024-02-13T04:18:05.070Z,22.20
2024-02-13T04:20:05.369Z,22.20
2024-02-13T04:22:06.443Z,20.70
2024-02-13T04:24:06.724Z,19.00
2024-02-13T04:26:15.132Z,21.20
2024-02-13T04:28:12.171Z,17.70
2024-02-13T04:30:12.488Z,16.40
2024-02-13T04:32:12.791Z,22.60
2024-02-13T04:34:13.163Z,20.50
2024-02-13T04:36:13.526Z,17.60
2024-02-13T04:38:13.840Z,21.30
2024-02-13T04:40:14.733Z,16.90
2024-02-13T04:42:15.576Z,23.30
2024-02-13T04:44:15.896Z,20.90
2024-02-13T04:46:16.208Z,19.30
2024-02-13T04:48:16.535Z,23.00
2024-02-13T04:50:21.821Z,23.00
2024-02-13T04:52:22.152Z,21.40
2024-02-13T04:54:22.449Z,27.90
2024-02-13T04:56:22.769Z,23.60
2024-02-13T04:58:23.083Z,24.30
2024-02-13T05:00:23.332Z,21.40
2024-02-13T05:02:23.658Z,24.50
2024-02-13T05:04:24.062Z,25.80
2024-02-13T05:06:24.335Z,20.00
2024-02-13T05:08:24.627Z,21.30
2024-02-13T05:10:24.890Z,25.90
2024-02-13T05:12:25.241Z,21.70
2024-02-13T05:14:25.725Z,21.80
2024-02-13T05:16:26.014Z,24.10
2024-02-13T05:18:26.469Z,22.90
2024-02-13T05:20:26.819Z,24.00
2024-02-13T05:22:27.106Z,25.60
2024-02-13T05:24:27.423Z,21.30
2024-02-13T05:26:27.760Z,24.00
2024-02-13T05:28:28.162Z,22.10
2024-02-13T05:30:28.464Z,21.90
2024-02-13T05:32:29.561Z,26.90
2024-02-13T05:34:29.887Z,17.20
2024-02-13T05:36:30.145Z,21.80
2024-02-13T05:38:30.483Z,19.90
2024-02-13T05:40:30.736Z,21.60
2024-02-13T05:42:31.009Z,20.70
2024-02-13T05:44:31.391Z,21.40
2024-02-13T05:46:31.808Z,17.80
2024-02-13T05:48:32.204Z,23.50
2024-02-13T05:50:32.526Z,23.20
2024-02-13T05:52:33.552Z,25.70
2024-02-13T05:54:33.882Z,24.00
2024-02-13T05:56:34.408Z,26.50
2024-02-13T05:58:34.758Z,21.50
2024-02-13T06:00:35.051Z,25.80
2024-02-13T06:02:35.681Z,21.60
2024-02-13T06:04:36.077Z,27.90
2024-02-13T06:06:36.398Z,26.30
2024-02-13T06:08:36.865Z,25.00
2024-02-13T06:10:41.937Z,27.70
2024-02-13T06:12:42.208Z,24.40
2024-02-13T06:14:42.493Z,27.80
2024-02-13T06:16:42.840Z,32.70
2024-02-13T06:18:43.164Z,33.90
2024-02-13T06:20:43.506Z,27.00
2024-02-13T06:22:43.852Z,27.30
2024-02-13T06:24:44.086Z,28.90
2024-02-13T06:26:44.455Z,24.80
2024-02-13T06:28:44.821Z,24.10
2024-02-13T06:30:46.068Z,24.50
2024-02-13T06:32:46.394Z,23.30
2024-02-13T06:34:46.873Z,26.60
2024-02-13T06:36:47.187Z,21.20
2024-02-13T06:38:47.551Z,25.80
2024-02-13T06:40:47.826Z,30.80
2024-02-13T06:42:48.096Z,34.50
2024-02-13T06:44:48.516Z,32.80
2024-02-13T06:46:48.804Z,30.60
2024-02-13T06:48:49.354Z,27.10
2024-02-13T06:50:49.899Z,26.90
2024-02-13T06:52:50.251Z,28.80
2024-02-13T06:54:51.242Z,24.00
2024-02-13T06:56:55.879Z,21.20
2024-02-13T06:58:56.149Z,21.10
2024-02-13T07:00:56.476Z,25.60
2024-02-13T07:02:56.922Z,23.90
2024-02-13T07:04:57.207Z,25.70
2024-02-13T07:07:08.198Z,29.10
2024-02-13T07:09:02.769Z,21.60
2024-02-13T07:11:03.118Z,21.40
2024-02-13T07:13:03.495Z,22.60
2024-02-13T07:15:03.975Z,20.10
2024-02-13T07:17:04.263Z,19.90
2024-02-13T07:19:04.720Z,24.10
2024-02-13T07:21:07.868Z,24.70
2024-02-13T07:23:09.085Z,21.90
2024-02-13T07:25:09.381Z,24.40
2024-02-13T07:27:09.766Z,22.40
2024-02-13T07:29:10.069Z,25.30
2024-02-13T07:31:10.390Z,21.00
2024-02-13T07:33:10.848Z,21.40
2024-02-13T07:35:11.191Z,25.10
2024-02-13T07:37:11.524Z,27.10
2024-02-13T07:39:11.902Z,26.50
2024-02-13T07:41:12.164Z,29.00
2024-02-13T07:43:12.489Z,27.10
2024-02-13T07:45:12.792Z,33.00
2024-02-13T07:47:13.151Z,31.00
2024-02-13T07:49:13.459Z,26.30
2024-02-13T07:51:13.719Z,24.50
2024-02-13T07:53:14.181Z,25.70
2024-02-13T07:55:14.595Z,26.80
2024-02-13T07:57:14.889Z,28.90
2024-02-13T07:59:15.260Z,30.90
2024-02-13T08:01:16.339Z,28.90
2024-02-13T08:03:16.710Z,28.90
2024-02-13T08:05:17.133Z,27.90
2024-02-13T08:07:17.489Z,31.50
2024-02-13T08:09:17.768Z,29.80
2024-02-13T08:11:18.233Z,26.90
2024-02-13T08:13:18.643Z,27.30
2024-02-13T08:15:18.941Z,29.80
2024-02-13T08:17:19.257Z,24.00
2024-02-13T08:19:19.642Z,23.60
2024-02-13T08:21:19.994Z,22.50
2024-02-13T08:23:20.318Z,23.00
2024-02-13T08:25:20.632Z,23.70
2024-02-13T08:27:20.929Z,28.10
2024-02-13T08:29:21.366Z,22.30
2024-02-13T08:31:21.654Z,21.80
2024-02-13T08:33:22.061Z,26.50
2024-02-13T08:35:22.912Z,23.50
2024-02-13T08:37:23.297Z,22.40
2024-02-13T08:39:23.591Z,21.60
2024-02-13T08:41:23.963Z,24.60
2024-02-13T08:43:24.327Z,21.00
2024-02-13T08:45:25.101Z,17.90
2024-02-13T08:47:25.536Z,22.60
2024-02-13T08:49:30.798Z,18.70
2024-02-13T08:51:33.417Z,25.40
2024-02-13T08:53:43.303Z,21.50
2024-02-13T08:55:43.667Z,21.20
2024-02-13T08:57:44.011Z,22.90
2024-02-13T08:59:44.371Z,21.60
2024-02-13T09:01:45.501Z,19.90
2024-02-13T09:03:45.845Z,20.40
2024-02-13T09:05:46.246Z,18.20
2024-02-13T09:07:46.557Z,18.10
2024-02-13T09:09:46.849Z,19.80
2024-02-13T09:11:47.212Z,15.50
2024-02-13T09:13:47.540Z,17.20
2024-02-13T09:15:47.899Z,17.60
2024-02-13T09:17:48.251Z,17.90
2024-02-13T09:19:48.668Z,15.70
2024-02-13T09:21:48.992Z,19.00
2024-02-13T09:23:49.347Z,15.20
2024-02-13T09:25:49.681Z,17.10
2024-02-13T09:27:49.987Z,16.20
2024-02-13T09:29:50.479Z,16.80
2024-02-13T09:31:50.878Z,17.60
2024-02-13T09:33:51.323Z,18.70
2024-02-13T09:35:52.115Z,14.80
2024-02-13T09:37:52.562Z,16.10
2024-02-13T09:39:52.865Z,14.70
2024-02-13T09:41:53.397Z,15.50
2024-02-13T09:43:53.906Z,15.10
2024-02-13T09:45:54.207Z,14.50
2024-02-13T09:47:54.657Z,15.10
2024-02-13T09:49:55.098Z,14.70
2024-02-13T09:51:55.401Z,14.00
2024-02-13T09:54:00.687Z,16.40
2024-02-13T09:56:01.014Z,17.70
2024-02-13T09:58:01.360Z,18.00
2024-02-13T10:00:01.806Z,16.60
2024-02-13T10:02:02.082Z,17.70
2024-02-13T10:04:02.436Z,16.50
2024-02-13T10:06:03.204Z,15.10
2024-02-13T10:08:03.480Z,14.30
2024-02-13T10:10:03.755Z,16.40
2024-02-13T10:12:04.057Z,13.90
2024-02-13T10:14:04.362Z,15.90
2024-02-13T10:16:04.636Z,12.20
2024-02-13T10:18:05.043Z,14.50
2024-02-13T10:20:05.404Z,14.50
2024-02-13T10:22:05.654Z,16.10
2024-02-13T10:24:06.092Z,14.00
2024-02-13T10:26:06.402Z,14.40
2024-02-13T10:28:06.685Z,11.20
2024-02-13T10:30:07.019Z,12.30
2024-02-13T10:32:07.314Z,14.40
2024-02-13T10:34:07.625Z,12.20
2024-02-13T10:36:07.981Z,10.90
2024-02-13T10:38:08.583Z,9.70
2024-02-13T10:40:08.874Z,11.20
2024-02-13T10:42:09.210Z,10.40
2024-02-13T10:44:09.494Z,11.00
2024-02-13T10:46:09.755Z,9.70
2024-02-13T10:48:10.150Z,10.60
2024-02-13T10:50:10.499Z,9.90
2024-02-13T10:52:10.757Z,11.70
2024-02-13T10:54:11.035Z,8.80
2024-02-13T10:56:11.375Z,9.00
2024-02-13T10:58:17.639Z,11.60
2024-02-13T11:00:16.825Z,9.60
2024-02-13T11:02:17.194Z,10.00
2024-02-13T11:04:17.510Z,9.90
2024-02-13T11:06:17.933Z,9.80
2024-02-13T11:08:18.291Z,8.10
2024-02-13T11:10:18.632Z,8.70
2024-02-13T11:12:19.060Z,8.70
2024-02-13T11:14:19.431Z,8.50
2024-02-13T11:16:19.784Z,5.80
2024-02-13T11:18:20.219Z,6.80
2024-02-13T11:20:20.592Z,7.00
2024-02-13T11:22:20.857Z,6.00
2024-02-13T11:24:21.145Z,6.00
2024-02-13T11:26:21.417Z,7.30
2024-02-13T11:28:21.827Z,6.70
2024-02-13T11:30:22.072Z,6.50
2024-02-13T11:32:22.575Z,5.70
2024-02-13T11:34:23.130Z,7.00
2024-02-13T11:36:24.156Z,5.50
2024-02-13T11:38:24.558Z,7.40
2024-02-13T11:40:24.887Z,5.90
2024-02-13T11:42:25.634Z,6.60
2024-02-13T11:44:26.534Z,5.90
2024-02-13T11:46:26.782Z,6.20
2024-02-13T11:48:29.427Z,5.30
2024-02-13T11:50:32.579Z,5.00
2024-02-13T11:52:32.839Z,6.80
2024-02-13T11:54:33.099Z,6.40
2024-02-13T11:56:33.436Z,6.10
2024-02-13T11:58:33.705Z,6.40
2024-02-13T12:00:34.073Z,5.50
2024-02-13T12:02:34.592Z,5.70
2024-02-13T12:04:35.071Z,7.30
2024-02-13T12:06:40.363Z,6.10
2024-02-13T12:08:40.705Z,5.70
2024-02-13T12:10:40.985Z,6.20
2024-02-13T12:12:41.277Z,5.80
2024-02-13T12:14:41.589Z,5.50
2024-02-13T12:16:41.854Z,4.50
2024-02-13T12:18:42.233Z,5.40
2024-02-13T12:20:42.575Z,4.90
2024-02-13T12:22:42.886Z,5.70
2024-02-13T12:24:43.148Z,5.90
2024-02-13T12:26:43.480Z,6.40
2024-02-13T12:28:43.770Z,4.80
2024-02-13T12:30:44.050Z,7.30
2024-02-13T12:32:44.479Z,6.80
2024-02-13T12:34:45.177Z,5.70
2024-02-13T12:36:45.618Z,5.20
2024-02-13T12:38:45.959Z,8.30
2024-02-13T12:40:46.369Z,6.50
2024-02-13T12:42:46.689Z,5.50
2024-02-13T12:44:47.069Z,6.80
2024-02-13T12:46:47.329Z,6.30
2024-02-13T12:48:47.732Z,5.40
2024-02-13T12:50:48.192Z,7.20
2024-02-13T12:52:48.521Z,6.90
2024-02-13T12:54:48.835Z,5.70
2024-02-13T12:56:49.139Z,5.00
2024-02-13T12:58:49.407Z,6.70
2024-02-13T13:00:49.793Z,6.20
2024-02-13T13:02:50.148Z,6.10
2024-02-13T13:04:50.493Z,6.90
2024-02-13T13:06:55.611Z,6.50
2024-02-13T13:08:57.476Z,5.10
2024-02-13T13:10:58.507Z,6.60
2024-02-13T13:12:58.789Z,5.40
2024-02-13T13:15:03.737Z,4.20
2024-02-13T13:17:04.279Z,6.00
2024-02-13T13:19:04.843Z,4.90
2024-02-13T13:21:05.426Z,5.80
2024-02-13T13:23:05.716Z,5.50
2024-02-13T13:25:06.009Z,4.70
2024-02-13T13:27:11.652Z,4.80
2024-02-13T13:29:12.233Z,6.00
2024-02-13T13:31:12.600Z,5.10
2024-02-13T13:33:13.196Z,5.00
2024-02-13T13:35:13.596Z,4.90
2024-02-13T13:37:13.941Z,5.20
2024-02-13T13:39:14.180Z,5.00
2024-02-13T13:41:14.597Z,5.10
2024-02-13T13:43:14.919Z,4.60
2024-02-13T13:45:15.224Z,4.00
2024-02-13T13:47:15.569Z,5.50
2024-02-13T13:49:15.988Z,4.20
2024-02-13T13:51:16.387Z,3.80
2024-02-13T13:53:16.913Z,3.60
2024-02-13T13:55:17.321Z,4.50
2024-02-13T13:57:17.622Z,3.80
2024-02-13T13:59:17.960Z,3.80
2024-02-13T14:01:18.360Z,4.80
2024-02-13T14:03:18.645Z,3.10
2024-02-13T14:05:19.078Z,4.30
2024-02-13T14:07:19.418Z,4.40
2024-02-13T14:09:19.758Z,4.20
2024-02-13T14:11:20.131Z,4.30
2024-02-13T14:13:20.464Z,4.50
2024-02-13T14:15:20.742Z,6.70
2024-02-13T14:17:21.094Z,3.90
2024-02-13T14:19:21.461Z,4.10
2024-02-13T14:21:21.782Z,4.50
2024-02-13T14:23:22.546Z,4.70
2024-02-13T14:25:22.889Z,4.10
2024-02-13T14:27:23.404Z,5.80
2024-02-13T14:29:23.730Z,4.50
2024-02-13T14:31:24.041Z,4.40
2024-02-13T14:33:24.725Z,4.60
2024-02-13T14:35:25.154Z,6.10
2024-02-13T14:37:25.487Z,3.70
2024-02-13T14:39:25.768Z,4.60
2024-02-13T14:41:26.147Z,3.40
2024-02-13T14:43:26.447Z,4.30
2024-02-13T14:45:26.780Z,5.10
2024-02-13T14:47:27.275Z,3.80
2024-02-13T14:49:27.828Z,4.70
2024-02-13T14:51:28.665Z,4.80
2024-02-13T14:53:29.012Z,3.00
2024-02-13T14:55:29.371Z,4.20
2024-02-13T14:57:29.672Z,6.00
2024-02-13T14:59:29.991Z,2.80
2024-02-13T15:01:30.338Z,2.90
2024-02-13T15:03:30.605Z,4.40
2024-02-13T15:05:30.960Z,4.40
2024-02-13T15:07:31.240Z,3.70
2024-02-13T15:09:31.562Z,3.90
2024-02-13T15:11:31.934Z,4.00
2024-02-13T15:13:32.166Z,6.10
2024-02-13T15:15:32.783Z,3.80
2024-02-13T15:17:33.368Z,3.10
2024-02-13T15:19:33.742Z,2.90
2024-02-13T15:21:33.991Z,5.30
2024-02-13T15:23:34.314Z,3.50
2024-02-13T15:25:34.597Z,3.80
2024-02-13T15:27:34.915Z,2.40
2024-02-13T15:29:35.187Z,2.80
2024-02-13T15:31:35.468Z,2.80
2024-02-13T15:33:36.096Z,3.90
2024-02-13T15:35:36.556Z,4.80
2024-02-13T15:37:36.814Z,3.60
2024-02-13T15:39:37.125Z,4.30
2024-02-13T15:41:37.488Z,4.60
2024-02-13T15:43:37.777Z,4.70
2024-02-13T15:45:38.063Z,3.70
2024-02-13T15:47:38.383Z,5.10
2024-02-13T15:49:38.779Z,3.60
2024-02-13T15:51:39.084Z,3.30
2024-02-13T15:53:39.445Z,4.60
2024-02-13T15:55:39.710Z,3.20
2024-02-13T15:57:40.017Z,3.90
2024-02-13T15:59:40.372Z,3.70
2024-02-13T16:01:40.660Z,3.80
2024-02-13T16:03:40.994Z,4.40
2024-02-13T16:05:41.306Z,3.50
2024-02-13T16:07:41.579Z,3.20
2024-02-13T16:09:41.889Z,6.10
2024-02-13T16:11:42.198Z,4.80
2024-02-13T16:13:42.500Z,6.90
2024-02-13T16:15:42.846Z,4.30
2024-02-13T16:17:43.162Z,5.60
2024-02-13T16:19:43.610Z,3.00
2024-02-13T16:21:43.846Z,4.50
2024-02-13T16:23:44.226Z,4.20
2024-02-13T16:25:44.504Z,4.10
2024-02-13T16:27:44.798Z,5.30
2024-02-13T16:29:45.177Z,5.00
2024-02-13T16:31:45.456Z,5.20
2024-02-13T16:33:45.888Z,5.70
2024-02-13T16:35:46.345Z,4.20
2024-02-13T16:37:46.590Z,6.60
2024-02-13T16:39:46.895Z,5.50
2024-02-13T16:41:47.326Z,6.10
2024-02-13T16:43:52.428Z,5.60
2024-02-13T16:45:52.778Z,5.20
2024-02-13T16:47:53.198Z,6.30
2024-02-13T16:49:53.732Z,6.20
2024-02-13T16:51:54.087Z,6.80
2024-02-13T16:53:54.392Z,6.60
2024-02-13T16:55:59.702Z,5.90
2024-02-13T16:57:59.952Z,5.80
2024-02-13T17:00:05.302Z,7.30
2024-02-13T17:02:05.685Z,6.40
2024-02-13T17:04:06.018Z,6.10
2024-02-13T17:06:06.419Z,4.40
2024-02-13T17:08:06.753Z,6.00
2024-02-13T17:10:07.024Z,3.80
2024-02-13T17:12:07.423Z,5.30
2024-02-13T17:14:07.945Z,7.10
2024-02-13T17:16:08.256Z,7.00
2024-02-13T17:18:08.673Z,9.00
2024-02-13T17:20:09.236Z,9.70
2024-02-13T17:22:09.694Z,9.50
2024-02-13T17:24:10.049Z,7.40
2024-02-13T17:26:10.416Z,8.10
2024-02-13T17:28:10.693Z,8.10
2024-02-13T17:30:11.024Z,9.50
2024-02-13T17:32:11.337Z,9.30
2024-02-13T17:34:11.779Z,8.20
2024-02-13T17:36:12.248Z,9.50
2024-02-13T17:38:12.566Z,8.70
2024-02-13T17:40:12.873Z,9.20
2024-02-13T17:42:13.169Z,8.90
2024-02-13T17:44:13.432Z,8.00
2024-02-13T17:46:13.731Z,7.10
2024-02-13T17:48:14.107Z,8.90
2024-02-13T17:50:14.455Z,7.30
2024-02-13T17:52:14.710Z,9.80
2024-02-13T17:54:15.037Z,7.90
2024-02-13T17:56:15.345Z,8.00
2024-02-13T17:58:15.658Z,8.80
2024-02-13T18:00:20.782Z,7.40
2024-02-13T18:02:21.093Z,8.90
2024-02-13T18:04:21.710Z,8.40
2024-02-13T18:06:22.011Z,8.50
2024-02-13T18:08:22.309Z,8.50
2024-02-13T18:10:22.547Z,7.20
2024-02-13T18:12:22.866Z,8.00
2024-02-13T18:14:23.159Z,8.60
2024-02-13T18:16:23.407Z,10.30
2024-02-13T18:18:27.425Z,10.10
2024-02-13T18:20:28.438Z,10.10
2024-02-13T18:22:28.817Z,9.20
2024-02-13T18:24:29.112Z,10.60
2024-02-13T18:26:29.389Z,8.40
2024-02-13T18:28:29.681Z,9.40
2024-02-13T18:30:29.940Z,7.90
2024-02-13T18:32:30.342Z,7.20
2024-02-13T18:34:30.756Z,8.40
2024-02-13T18:36:31.100Z,9.70
2024-02-13T18:38:31.394Z,8.90
2024-02-13T18:40:31.724Z,6.90
2024-02-13T18:42:32.031Z,7.70
2024-02-13T18:44:32.506Z,7.80
2024-02-13T18:46:32.777Z,7.80
2024-02-13T18:48:33.365Z,10.60
2024-02-13T18:50:33.726Z,8.70
2024-02-13T18:52:34.273Z,8.80
2024-02-13T18:54:34.579Z,8.00
2024-02-13T18:56:34.905Z,8.20
2024-02-13T18:58:35.206Z,7.70
2024-02-13T19:00:35.553Z,6.50
2024-02-13T19:02:35.886Z,7.40
2024-02-13T19:04:36.445Z,7.80
2024-02-13T19:06:36.985Z,6.80
2024-02-13T19:08:37.431Z,7.10
2024-02-13T19:10:38.246Z,9.20
2024-02-13T19:12:38.806Z,7.00
2024-02-13T19:14:39.193Z,7.70
2024-02-13T19:16:46.025Z,8.90
2024-02-13T19:18:46.581Z,8.60
2024-02-13T19:20:46.990Z,9.70
2024-02-13T19:22:47.355Z,8.70
2024-02-13T19:24:47.649Z,8.30
2024-02-13T19:26:48.002Z,11.00
2024-02-13T19:28:48.267Z,9.40
2024-02-13T19:30:48.769Z,9.30
2024-02-13T19:32:49.185Z,9.50
2024-02-13T19:34:49.559Z,10.10
2024-02-13T19:36:54.811Z,9.00
2024-02-13T19:38:55.129Z,10.30
2024-02-13T19:40:55.394Z,10.70
2024-02-13T19:42:55.690Z,11.20
2024-02-13T19:44:55.977Z,9.30
2024-02-13T19:46:56.242Z,9.40
2024-02-13T19:48:56.627Z,9.00
2024-02-13T19:50:57.070Z,11.60
2024-02-13T19:52:57.352Z,8.90
2024-02-13T19:54:57.736Z,12.00
2024-02-13T19:56:57.998Z,12.80
2024-02-13T19:58:58.389Z,11.10
2024-02-13T20:00:58.708Z,9.90
2024-02-13T20:02:59.000Z,11.30
2024-02-13T20:04:59.281Z,11.30
2024-02-13T20:06:59.645Z,13.20
2024-02-13T20:08:59.981Z,13.00
2024-02-13T20:11:00.374Z,10.50
2024-02-13T20:13:05.489Z,15.40
2024-02-13T20:15:05.798Z,11.00
2024-02-13T20:17:06.119Z,9.50
2024-02-13T20:19:06.552Z,9.60
2024-02-13T20:21:06.943Z,10.40
2024-02-13T20:23:07.179Z,9.60
2024-02-13T20:25:12.370Z,11.20
2024-02-13T20:27:12.662Z,10.40
2024-02-13T20:29:12.959Z,8.90
2024-02-13T20:31:13.279Z,10.20
2024-02-13T20:33:17.036Z,10.40
2024-02-13T20:35:18.557Z,11.50
2024-02-13T20:37:18.821Z,10.60
2024-02-13T20:39:19.218Z,8.50
2024-02-13T20:41:19.464Z,10.70
2024-02-13T20:43:19.762Z,10.80
2024-02-13T20:47:20.857Z,9.10
2024-02-13T20:49:21.277Z,9.80
2024-02-13T20:51:21.526Z,10.30
2024-02-13T20:53:21.856Z,9.80
2024-02-13T20:55:22.183Z,11.70
2024-02-13T20:57:22.476Z,9.50
2024-02-13T20:59:22.769Z,10.20
2024-02-13T21:01:23.032Z,9.30
2024-02-13T21:03:23.404Z,10.10
2024-02-13T21:05:23.738Z,11.30
2024-02-13T21:07:24.047Z,9.70
2024-02-13T21:09:24.284Z,12.40
2024-02-13T21:11:24.613Z,12.90
2024-02-13T21:13:24.904Z,10.40
2024-02-13T21:15:25.216Z,9.30
2024-02-13T21:17:25.538Z,10.10
2024-02-13T21:19:25.976Z,10.50
2024-02-13T21:21:26.353Z,10.20
2024-02-13T21:23:26.722Z,11.00
2024-02-13T21:25:27.035Z,10.10
2024-02-13T21:27:27.341Z,9.50
2024-02-13T21:29:27.684Z,8.50
2024-02-13T21:31:27.952Z,10.90
2024-02-13T21:33:28.407Z,10.10
2024-02-13T21:35:28.930Z,8.60
2024-02-13T21:37:29.224Z,10.30
2024-02-13T21:39:29.558Z,10.50
2024-02-13T21:41:30.128Z,11.00
2024-02-13T21:43:30.394Z,11.10
2024-02-13T21:45:30.811Z,10.10
2024-02-13T21:47:31.204Z,10.50
2024-02-13T21:49:31.724Z,9.80
2024-02-13T21:51:32.034Z,9.90
2024-02-13T21:53:32.333Z,10.70
2024-02-13T21:55:32.613Z,9.60
2024-02-13T21:57:32.915Z,9.30
2024-02-13T21:59:33.256Z,12.10
2024-02-13T22:01:33.591Z,11.40
2024-02-13T22:03:33.935Z,9.50
2024-02-13T22:05:34.252Z,10.80
2024-02-13T22:07:34.562Z,10.60
2024-02-13T22:09:34.838Z,14.20
2024-02-13T22:11:36.782Z,13.90
2024-02-13T22:13:37.209Z,13.70
2024-02-13T22:15:37.612Z,11.60
2024-02-13T22:17:38.044Z,11.90
2024-02-13T22:19:38.549Z,10.10
2024-02-13T22:21:39.098Z,11.80
2024-02-13T22:23:39.508Z,13.00
2024-02-13T22:25:39.837Z,9.10
2024-02-13T22:27:40.314Z,10.70
2024-02-13T22:29:40.631Z,8.70
2024-02-13T22:31:40.908Z,8.80
2024-02-13T22:33:41.448Z,10.30
2024-02-13T22:35:41.848Z,9.50
2024-02-13T22:37:42.180Z,10.80
2024-02-13T22:39:42.470Z,9.30
2024-02-13T22:41:42.827Z,9.20
2024-02-13T22:43:43.091Z,9.20
2024-02-13T22:45:43.410Z,9.50
2024-02-13T22:47:43.717Z,9.50
2024-02-13T22:49:44.039Z,9.10
2024-02-13T22:51:45.323Z,7.70
2024-02-13T22:53:45.849Z,7.50
2024-02-13T22:55:46.151Z,8.10
2024-02-13T22:57:46.457Z,8.80
2024-02-13T22:59:46.817Z,8.10
2024-02-13T23:01:47.149Z,8.40
2024-02-13T23:03:47.526Z,8.00
2024-02-13T23:05:48.002Z,7.50
2024-02-13T23:07:48.459Z,8.10
2024-02-13T23:09:48.783Z,9.70
2024-02-13T23:11:49.124Z,9.60
2024-02-13T23:13:51.426Z,7.50
2024-02-13T23:15:52.058Z,8.70
2024-02-13T23:17:52.476Z,10.40
2024-02-13T23:19:52.975Z,8.20
2024-02-13T23:21:53.266Z,7.80
2024-02-13T23:23:53.825Z,6.80
2024-02-13T23:25:54.166Z,8.20
2024-02-13T23:27:54.457Z,8.90
2024-02-13T23:29:55.030Z,7.40
2024-02-13T23:31:55.357Z,8.40
2024-02-13T23:33:55.948Z,9.00
2024-02-13T23:35:56.261Z,9.70
2024-02-13T23:37:56.558Z,9.70
2024-02-13T23:39:56.883Z,9.60
2024-02-13T23:41:57.210Z,9.80
2024-02-13T23:43:57.505Z,10.10
2024-02-13T23:45:57.794Z,10.30
2024-02-13T23:47:58.115Z,9.80
2024-02-13T23:49:58.393Z,9.90
2024-02-13T23:51:58.706Z,11.10
2024-02-13T23:53:59.031Z,12.10
2024-02-13T23:55:59.368Z,11.80
2024-02-13T23:57:59.706Z,10.30
